createdAt,value
2022-10-18T00:05:14.365Z,101206.13
2022-10-18T00:10:39.765Z,101214.38
2022-10-18T00:16:12.585Z,101205.03
2022-10-18T00:21:38.011Z,101210.63
2022-10-18T00:27:14.743Z,101207.81
2022-10-18T00:32:50.239Z,101219.50
2022-10-18T00:38:14.184Z,101233.72
2022-10-18T00:44:13.860Z,101239.97
2022-10-18T00:49:45.822Z,101233.56
2022-10-18T00:55:23.909Z,101224.66
2022-10-18T01:00:50.736Z,101228.97
2022-10-18T01:06:14.703Z,101232.28
2022-10-18T01:12:23.786Z,101239.97
2022-10-18T01:17:55.982Z,101247.19
2022-10-18T01:23:40.385Z,101239.16
2022-10-18T01:29:23.706Z,101246.09
2022-10-18T01:34:54.079Z,101250.66
2022-10-18T01:40:32.071Z,101238.44
2022-10-18T01:45:58.952Z,101240.09
2022-10-18T01:51:28.022Z,101241.78
2022-10-18T01:57:03.965Z,101238.16
2022-10-18T02:02:43.422Z,101238.03
2022-10-18T02:08:22.890Z,101233.25
2022-10-18T02:14:02.651Z,101238.09
2022-10-18T02:19:37.100Z,101239.78
2022-10-18T02:25:10.087Z,101238.50
2022-10-18T02:30:41.945Z,101245.44
2022-10-18T02:36:13.144Z,101247.09
2022-10-18T02:41:40.218Z,101248.63
2022-10-18T02:47:04.877Z,101248.75
2022-10-18T02:52:30.617Z,101255.03
2022-10-18T02:58:00.555Z,101254.59
2022-10-18T03:03:26.341Z,101253.31
2022-10-18T03:09:00.675Z,101255.81
2022-10-18T03:14:28.821Z,101255.69
2022-10-18T03:20:02.824Z,101251.06
2022-10-18T03:25:26.409Z,101257.88
2022-10-18T03:30:53.257Z,101259.53
2022-10-18T03:36:26.172Z,101263.69
2022-10-18T03:41:52.407Z,101264.38
2022-10-18T03:47:19.269Z,101258.09
2022-10-18T03:52:45.998Z,101256.13
2022-10-18T03:58:13.660Z,101257.78
2022-10-18T04:03:44.669Z,101267.13
2022-10-18T04:09:21.069Z,101256.53
2022-10-18T04:14:47.935Z,101245.66
2022-10-18T04:20:15.645Z,101246.47
2022-10-18T04:25:39.613Z,101248.97
2022-10-18T04:31:04.509Z,101248.84
2022-10-18T04:36:40.282Z,101245.03
2022-10-18T04:42:07.690Z,101240.28
2022-10-18T04:47:41.483Z,101236.78
2022-10-18T04:53:10.480Z,101238.47
2022-10-18T04:58:38.705Z,101239.44
2022-10-18T05:10:07.213Z,101229.09
2022-10-18T05:15:30.693Z,101224.63
2022-10-18T05:21:03.712Z,101204.47
2022-10-18T05:26:34.920Z,101207.31
2022-10-18T05:32:00.765Z,101200.19
2022-10-18T05:37:36.458Z,101201.72
2022-10-18T05:43:04.634Z,101195.44
2022-10-18T05:48:32.187Z,101194.47
2022-10-18T05:54:04.593Z,101187.34
2022-10-18T05:59:46.221Z,101185.34
2022-10-18T06:05:16.348Z,101183.88
2022-10-18T06:10:42.868Z,101178.41
2022-10-18T06:16:08.462Z,101173.97
2022-10-18T06:21:38.327Z,101174.94
2022-10-18T06:32:36.739Z,101184.22
2022-10-18T06:38:02.563Z,101187.06
2022-10-18T06:43:28.438Z,101167.00
2022-10-18T06:48:55.841Z,101151.94
2022-10-18T06:54:28.466Z,101151.94
2022-10-18T07:00:09.561Z,101155.88
2022-10-18T07:05:35.383Z,101152.31
2022-10-18T07:11:20.058Z,101159.41
2022-10-18T07:16:47.242Z,101167.38
2022-10-18T07:22:11.254Z,101171.00
2022-10-18T07:27:42.992Z,101160.59
2022-10-18T07:33:07.067Z,101168.00
2022-10-18T07:38:36.632Z,101190.19
2022-10-18T07:44:08.342Z,101202.31
2022-10-18T07:49:31.397Z,101187.59
2022-10-18T07:54:59.284Z,101188.75
2022-10-18T08:00:22.382Z,101202.19
2022-10-18T08:05:59.279Z,101212.81
2022-10-18T08:11:24.837Z,101212.34
2022-10-18T08:16:47.910Z,101214.63
2022-10-18T08:22:14.306Z,101203.78
2022-10-18T08:27:41.687Z,101222.69
2022-10-18T08:33:05.684Z,101221.59
2022-10-18T08:38:27.905Z,101230.38
2022-10-18T08:44:02.107Z,101228.22
2022-10-18T08:49:31.902Z,101213.91
2022-10-18T08:55:00.176Z,101221.69
2022-10-18T09:00:26.055Z,101237.28
2022-10-18T09:05:52.498Z,101244.53
2022-10-18T09:11:28.465Z,101234.94
2022-10-18T09:17:05.661Z,101231.84
2022-10-18T09:22:43.644Z,101227.69
2022-10-18T09:28:20.152Z,101220.47
2022-10-18T09:33:52.364Z,101207.25
2022-10-18T09:39:20.632Z,101194.28
2022-10-18T09:44:47.054Z,101201.91
2022-10-18T09:50:19.788Z,101221.63
2022-10-18T09:56:00.298Z,101237.34
2022-10-18T10:01:25.808Z,101241.78
2022-10-18T10:06:55.871Z,101252.75
2022-10-18T10:12:29.701Z,101262.28
2022-10-18T10:17:56.565Z,101258.22
2022-10-18T10:23:22.998Z,101258.09
2022-10-18T10:28:47.859Z,101256.94
2022-10-18T10:34:21.640Z,101251.44
2022-10-18T10:39:55.462Z,101255.88
2022-10-18T10:45:31.647Z,101261.34
2022-10-18T10:50:58.453Z,101265.22
2022-10-18T10:56:27.574Z,101266.88
2022-10-18T11:01:51.736Z,101267.56
2022-10-18T11:07:22.583Z,101265.81
2022-10-18T11:12:48.468Z,101254.25
2022-10-18T11:18:18.589Z,101254.56
2022-10-18T11:23:43.830Z,101265.81
2022-10-18T11:29:31.855Z,101278.63
2022-10-18T11:35:06.406Z,101273.88
2022-10-18T11:40:40.525Z,101278.00
2022-10-18T11:46:08.380Z,101282.47
2022-10-18T11:51:56.287Z,101294.13
2022-10-18T11:57:37.648Z,101296.63
2022-10-18T12:03:15.390Z,101289.00
2022-10-18T12:08:41.399Z,101293.06
2022-10-18T12:14:05.843Z,101286.41
2022-10-18T12:19:31.168Z,101290.19
2022-10-18T12:24:53.260Z,101281.13
2022-10-18T12:30:23.764Z,101280.97
2022-10-18T12:35:57.947Z,101278.16
2022-10-18T12:41:24.588Z,101280.81
2022-10-18T12:46:48.170Z,101276.50
2022-10-18T12:51:55.249Z,101262.97
2022-10-18T12:56:58.784Z,101269.78
2022-10-18T13:02:31.602Z,101268.56
2022-10-18T13:07:45.044Z,101258.88
2022-10-18T13:13:13.169Z,101257.00
2022-10-18T13:18:27.715Z,101257.34
2022-10-18T13:23:44.010Z,101250.75
2022-10-18T13:28:56.276Z,101257.44
2022-10-18T13:34:38.126Z,101265.88
2022-10-18T13:39:43.131Z,101271.50
2022-10-18T13:44:47.683Z,101269.81
2022-10-18T13:50:10.654Z,101280.97
2022-10-18T13:55:41.232Z,101280.19
2022-10-18T14:00:59.029Z,101286.97
2022-10-18T14:06:06.277Z,101297.28
2022-10-18T14:11:23.764Z,101300.06
2022-10-18T14:16:38.175Z,101295.13
2022-10-18T14:21:47.306Z,101302.09
2022-10-18T14:27:11.686Z,101304.59
2022-10-18T14:32:25.559Z,101297.13
2022-10-18T14:37:32.477Z,101305.06
2022-10-18T14:42:37.830Z,101295.13
2022-10-18T14:47:41.123Z,101300.94
2022-10-18T14:52:44.176Z,101299.03
2022-10-18T14:57:48.699Z,101304.03
2022-10-18T15:02:52.049Z,101296.09
2022-10-18T15:07:56.966Z,101295.72
2022-10-18T15:13:10.267Z,101302.16
2022-10-18T15:18:24.073Z,101302.28
2022-10-18T15:23:31.489Z,101299.41
2022-10-18T15:28:38.326Z,101302.56
2022-10-18T15:33:41.401Z,101292.41
2022-10-18T15:38:47.559Z,101295.38
2022-10-18T15:44:11.663Z,101285.91
2022-10-18T15:49:52.231Z,101295.16
2022-10-18T15:54:55.223Z,101299.38
2022-10-18T16:00:04.912Z,101290.88
2022-10-18T16:05:16.712Z,101293.75
2022-10-18T16:10:20.311Z,101302.88
2022-10-18T16:15:27.463Z,101300.78
2022-10-18T16:20:31.086Z,101302.94
2022-10-18T16:25:34.220Z,101310.38
2022-10-18T16:30:39.174Z,101314.44
2022-10-18T16:35:42.203Z,101328.38
2022-10-18T16:40:45.203Z,101335.38
2022-10-18T16:45:49.941Z,101334.31
2022-10-18T16:50:53.959Z,101342.63
2022-10-18T16:56:00.510Z,101345.69
2022-10-18T17:01:08.112Z,101332.91
2022-10-18T17:06:16.319Z,101333.94
2022-10-18T17:11:21.113Z,101341.03
2022-10-18T17:21:33.727Z,101350.38
2022-10-18T17:26:37.015Z,101353.59
2022-10-18T17:31:41.553Z,101357.22
2022-10-18T17:36:44.672Z,101368.06
2022-10-18T17:41:47.800Z,101362.19
2022-10-18T17:46:52.789Z,101358.56
2022-10-18T17:51:55.884Z,101360.09
2022-10-18T17:56:58.854Z,101361.34
2022-10-18T18:02:03.688Z,101357.22
2022-10-18T18:07:07.047Z,101362.63
2022-10-18T18:12:10.152Z,101361.66
2022-10-18T18:17:24.642Z,101361.38
2022-10-18T18:22:40.447Z,101360.66
2022-10-18T18:27:45.957Z,101359.00
2022-10-18T18:32:51.411Z,101355.69
2022-10-18T18:37:56.250Z,101360.97
2022-10-18T18:43:07.096Z,101369.72
2022-10-18T18:48:26.998Z,101368.22
2022-10-18T18:53:30.294Z,101371.66
2022-10-18T18:58:38.533Z,101372.22
2022-10-18T19:03:51.737Z,101371.22
2022-10-18T19:09:01.551Z,101376.34
2022-10-18T19:14:05.061Z,101382.88
2022-10-18T19:19:15.354Z,101388.53
2022-10-18T19:24:21.317Z,101389.38
2022-10-18T19:29:28.356Z,101389.75
2022-10-18T19:34:34.581Z,101389.63
2022-10-18T19:39:39.205Z,101398.75
2022-10-18T19:44:42.929Z,101389.72
2022-10-18T19:49:49.333Z,101394.69
2022-10-18T19:54:52.542Z,101402.16
2022-10-18T19:59:56.668Z,101399.06
2022-10-18T20:05:02.476Z,101403.09
2022-10-18T20:10:06.259Z,101394.59
2022-10-18T20:15:10.868Z,101406.66
2022-10-18T20:20:15.470Z,101401.88
2022-10-18T20:25:18.758Z,101415.44
2022-10-18T20:30:22.450Z,101408.06
2022-10-18T20:35:27.709Z,101408.69
2022-10-18T20:40:30.980Z,101408.09
2022-10-18T20:45:34.156Z,101407.94
2022-10-18T20:50:43.370Z,101420.78
2022-10-18T20:55:46.916Z,101423.06
2022-10-18T21:00:50.697Z,101422.75
2022-10-18T21:05:57.972Z,101427.56
2022-10-18T21:11:01.881Z,101440.28
2022-10-18T21:16:06.424Z,101433.03
2022-10-18T21:26:22.988Z,101445.25
2022-10-18T21:31:28.087Z,101461.56
2022-10-18T21:36:35.388Z,101459.72
2022-10-18T21:41:39.545Z,101457.97
2022-10-18T21:46:44.120Z,101448.66
2022-10-18T21:51:48.807Z,101451.31
2022-10-18T21:56:52.305Z,101458.41
2022-10-18T22:01:55.771Z,101453.03
2022-10-18T22:07:00.763Z,101448.47
2022-10-18T22:12:03.795Z,101441.53
2022-10-18T22:17:06.901Z,101440.59
2022-10-18T22:22:11.770Z,101425.53
2022-10-18T22:27:14.879Z,101426.38
2022-10-18T22:32:18.249Z,101435.69
2022-10-18T22:37:22.864Z,101440.81
2022-10-18T22:42:26.612Z,101441.53
2022-10-18T22:47:30.850Z,101436.94
2022-10-18T22:52:36.073Z,101427.88
2022-10-18T22:57:42.078Z,101437.16
2022-10-18T23:02:45.633Z,101423.88
2022-10-18T23:07:58.647Z,101434.00
2022-10-18T23:13:04.590Z,101445.06
2022-10-18T23:18:09.286Z,101445.50
2022-10-18T23:23:17.476Z,101450.50
2022-10-18T23:28:21.043Z,101443.19
2022-10-18T23:33:25.088Z,101446.25
2022-10-18T23:38:33.075Z,101447.66
2022-10-18T23:43:36.838Z,101458.47
2022-10-18T23:48:41.410Z,101450.19
2022-10-18T23:53:49.117Z,101455.91
2022-10-18T23:58:53.195Z,101458.13
